Airport Name : Yao

Other Name : Yao

ICAO : RJOY

IATA :

FAA :

Latitude : 34.596311

Longitude : 135.602944

Country : Japan

Local Date and Time : 19 Jun 2024 09:51

 

TAF (Terminal Aerodrome Forecast)

 

METAR (METeorological Aerodrome Report)

RJOY 190000Z VRB02KT 9999 FEW030 BKN/// 25/17 Q1010

RJOY 182300Z VRB02KT 9999 FEW070 BKN/// 24/18 Q1010